Latest Weather Observations for Cloncurry

IDQ60801

Issued at 9:35 pm EST Saturday 25 October 2014 (issued every 30 minutes, with the page automatically refreshed every 10 minutes)

About weather observations | Map of weather stations | Latest weather observations for QLD | Other Formats
Station Details ID: 029141 Name: CLONCURRY AIRPORT Lat: -20.67 Lon: 140.50 Height: 186.0 m
Data from the previous 72 hours. | See also: Recent months at Cloncurry
Date/Time
EST
Temp
°C
App
Temp
°C
Dew
Point
Rel
Hum
%
Delta-T
°C
Wind Press
QNH
hPa
Press
MSL
hPa
Rain
since 9 am
mm
Dir
 
Spd
km/h
Gust
km/h
Spd
kts
Gust
kts
25/09:30pm 33.2 27.4 2.1 14 15.8 E 22 28 12 15 1015.1 1013.9 0.0
25/09:00pm 33.7 28.3 2.5 14 16.0 E 20 28 11 15 1014.9 1013.7 0.0
25/08:30pm 33.7 28.9 2.5 14 16.0 E 17 24 9 13 1014.7 1013.5 0.0
25/08:00pm 34.4 29.1 2.0 13 16.6 E 19 26 10 14 1014.4 1013.2 0.0
25/07:30pm 34.8 29.9 2.3 13 16.8 E 17 22 9 12 1014.0 1012.8 0.0
25/07:00pm 35.3 29.8 1.6 12 17.2 E 20 24 11 13 1013.8 1012.6 0.0
25/06:30pm 36.2 29.6 2.3 12 17.6 E 26 35 14 19 1013.3 1012.2 0.0
25/06:10pm 36.7 29.8 2.7 12 17.8 E 28 46 15 25 1013.1 1012.0 0.0
25/06:00pm 37.0 30.2 2.9 12 18.0 E 28 43 15 23 1013.1 1012.0 0.0
25/05:58pm 36.9 30.0 2.8 12 17.9 E 28 43 15 23 1013.0 1011.9 0.0
25/05:30pm 36.5 31.9 3.7 13 17.5 E 17 24 9 13 1013.1 1012.0 0.0
25/05:00pm 36.6 32.2 2.6 12 17.8 E 15 20 8 11 1013.1 1012.0 0.0
25/04:30pm 36.7 31.0 2.7 12 17.8 ESE 22 33 12 18 1013.3 1012.2 0.0
25/04:00pm 36.9 30.8 2.8 12 17.9 ESE 24 33 13 18 1013.6 1012.4 0.0
25/03:30pm 36.8 30.3 2.8 12 17.9 ENE 26 35 14 19 1013.9 1012.7 0.0
25/03:00pm 37.0 31.3 2.9 12 18.0 ENE 22 32 12 17 1014.3 1013.1 0.0
25/02:30pm 36.2 29.6 2.3 12 17.6 E 26 35 14 19 1014.8 1013.6 0.0
25/02:00pm 35.8 30.5 2.0 12 17.4 E 19 26 10 14 1015.2 1014.0 0.0
25/01:30pm 35.1 29.5 1.5 12 17.1 ENE 20 32 11 17 1015.6 1014.4 0.0
25/01:00pm 34.1 29.2 1.8 13 16.4 NNE 17 32 9 17 1016.2 1015.0 0.0
25/12:30pm 33.8 28.8 1.6 13 16.3 N 17 28 9 15 1016.6 1015.4 0.0
25/12:00pm 33.0 29.1 0.9 13 16.0 N 11 22 6 12 1017.3 1016.2 0.0
25/11:30am 33.2 27.6 1.1 13 16.1 N 20 28 11 15 1017.9 1016.8 0.0
25/11:00am 32.4 27.4 1.5 14 15.5 NE 17 26 9 14 1018.4 1017.3 0.0
25/10:30am 30.8 25.2 0.2 14 14.9 N 19 30 10 16 1018.9 1017.8 0.0
25/10:00am 30.7 24.9 0.2 14 14.8 N 20 30 11 16 1019.3 1018.1 0.0
25/09:30am 30.2 23.6 -0.2 14 14.6 N 24 32 13 17 1019.6 1018.4 0.0
25/09:00am 29.9 23.1 -1.5 13 14.7 N 24 35 13 19 1019.8 1018.6 0.0
25/08:30am 28.5 21.6 -2.6 13 14.2 N 24 35 13 19 1020.0 1018.8 0.0
25/08:00am 27.3 21.2 -3.5 13 13.6 N 19 22 10 12 1019.9 1018.7 0.0
25/07:30am 26.2 21.3 -3.4 14 13.0 NNE 13 20 7 11 1019.6 1018.4 0.0
25/07:00am 23.3 21.4 0.4 22 10.5 CALM 0 0 0 0 1018.9 1017.8 0.0
25/06:30am 21.6 18.6 0.8 25 9.5 NNE 6 7 3 4 1018.4 1017.3 0.0
25/06:00am 22.8 19.2 0.6 23 10.2 NNE 9 11 5 6 1017.7 1016.6 0.0
25/05:30am 22.8 18.5 1.2 24 10.1 ENE 13 15 7 8 1017.2 1016.1 0.0
25/05:00am 23.5 19.2 1.2 23 10.5 ENE 13 15 7 8 1016.9 1015.7 0.0
25/04:30am 24.4 19.8 1.3 22 10.9 ENE 15 19 8 10 1016.3 1015.1 0.0
25/04:00am 25.6 20.7 1.7 21 11.5 ENE 17 20 9 11 1016.0 1014.8 0.0
25/03:30am 26.7 21.4 1.9 20 12.1 ENE 19 24 10 13 1015.6 1014.4 0.0
25/03:00am 26.2 21.3 2.2 21 11.7 E 17 24 9 13 1015.5 1014.3 0.0
25/02:30am 26.1 21.1 1.4 20 11.9 E 17 20 9 11 1015.4 1014.2 0.0
25/02:00am 26.0 21.9 2.0 21 11.6 E 13 17 7 9 1015.3 1014.1 0.0
25/01:30am 25.6 21.7 1.0 20 11.7 E 11 13 6 7 1015.4 1014.2 0.0
25/01:00am 26.9 22.5 0.6 18 12.5 ESE 13 17 7 9 1015.6 1014.4 0.0
25/12:30am 27.9 23.3 1.4 18 12.9 E 15 17 8 9 1015.9 1014.7 0.0
25/12:00am 28.4 23.7 1.0 17 13.3 ESE 15 17 8 9 1016.2 1015.0 0.0
 
Date/Time
EST
Temp
°C
App
Temp
°C
Dew
Point
Rel
Hum
%
Delta-T
°C
Wind Press
QNH
hPa
Press
MSL
hPa
Rain
since 9 am
mm
Dir
 
Spd
km/h
Gust
km/h
Spd
kts
Gust
kts
24/11:30pm 29.2 24.1 0.8 16 13.8 E 17 20 9 11 1016.1 1014.9 0.0
24/11:00pm 29.7 24.1 1.2 16 14.0 ESE 20 24 11 13 1016.1 1014.9 0.0
24/10:30pm 28.4 24.0 0.2 16 13.5 ESE 13 15 7 8 1016.1 1014.9 0.0
24/10:00pm 29.4 24.6 0.1 15 14.1 ESE 15 17 8 9 1015.8 1014.6 0.0
24/09:30pm 30.5 25.7 0.0 14 14.7 ESE 15 20 8 11 1015.6 1014.4 0.0
24/09:00pm 30.9 26.9 0.3 14 14.9 SE 11 13 6 7 1015.3 1014.1 0.0
24/08:30pm 30.6 26.9 0.1 14 14.8 ESE 9 11 5 6 1015.0 1013.8 0.0
24/08:00pm 31.8 27.7 0.0 13 15.5 ESE 11 13 6 7 1014.6 1013.4 0.0
24/07:30pm 33.4 28.4 1.3 13 16.2 ESE 17 20 9 11 1014.2 1013.0 0.0
24/07:00pm 34.1 29.2 1.8 13 16.5 E 17 20 9 11 1014.0 1012.8 0.0
24/06:30pm 35.0 28.7 1.4 12 17.1 ESE 24 33 13 18 1013.7 1012.5 0.0
24/06:00pm 35.7 28.5 0.7 11 17.7 E 28 41 15 22 1013.4 1012.3 0.0
24/05:30pm 36.2 30.2 1.1 11 17.9 E 22 32 12 17 1013.1 1012.0 0.0
24/05:00pm 36.1 29.1 2.2 12 17.6 E 28 46 15 25 1013.0 1011.9 0.0
24/04:30pm 36.3 30.5 2.4 12 17.7 E 22 30 12 16 1013.0 1011.9 0.0
24/04:07pm 36.7 29.4 2.7 12 17.8 ESE 30 50 16 27 1013.2 1012.1 0.0
24/04:00pm 36.4 29.5 2.4 12 17.7 ESE 28 41 15 22 1013.4 1012.3 0.0
24/03:30pm 36.4 29.5 2.4 12 17.7 E 28 44 15 24 1013.9 1012.7 0.0
24/03:00pm 36.5 30.0 2.5 12 17.8 E 26 43 14 23 1014.1 1012.9 0.0
24/02:50pm 35.7 28.7 1.9 12 17.4 ESE 28 46 15 25 1014.3 1013.1 0.0
24/02:30pm 36.2 28.5 2.3 12 17.6 E 32 44 17 24 1014.7 1013.5 0.0
24/02:08pm 35.7 28.1 3.0 13 17.1 ENE 32 50 17 27 1014.9 1013.7 0.0
24/02:00pm 35.5 28.7 2.9 13 17.0 E 28 44 15 24 1014.9 1013.7 0.0
24/01:30pm 35.5 29.4 2.9 13 17.1 E 24 39 13 21 1015.4 1014.2 0.0
24/01:00pm 34.8 29.6 2.3 13 16.8 E 19 37 10 20 1016.1 1014.9 0.0
24/12:30pm 34.9 30.1 2.4 13 16.8 E 17 26 9 14 1016.7 1015.5 0.0
24/12:00pm 33.8 28.1 2.6 14 16.1 NE 22 28 12 15 1017.2 1016.1 0.0
24/11:30am 34.3 29.2 3.0 14 16.3 E 19 26 10 14 1017.6 1016.5 0.0
24/11:00am 32.8 28.0 2.8 15 15.4 NNE 17 24 9 13 1017.9 1016.8 0.0
24/10:30am 32.8 29.0 3.7 16 15.2 N 13 22 7 12 1018.2 1017.1 0.0
24/10:00am 31.5 26.5 3.5 17 14.4 N 19 28 10 15 1018.6 1017.5 0.0
24/09:30am 30.6 25.5 2.8 17 14.1 N 19 26 10 14 1018.7 1017.6 0.0
24/09:00am 30.0 24.8 2.3 17 13.8 N 19 24 10 13 1018.8 1017.7 0.0
24/08:30am 28.6 23.2 2.7 19 12.9 N 20 30 11 16 1018.8 1017.7 0.0
24/08:00am 27.3 21.9 2.4 20 12.3 N 20 28 11 15 1018.6 1017.5 0.0
24/07:30am 26.3 21.1 2.3 21 11.7 N 19 28 10 15 1018.2 1017.1 0.0
24/07:00am 24.7 20.5 1.6 22 11.0 NE 13 19 7 10 1017.8 1016.7 0.0
24/06:30am 23.5 18.9 1.8 24 10.3 ENE 15 17 8 9 1017.3 1016.2 0.0
24/06:00am 23.2 19.1 2.1 25 10.0 ENE 13 15 7 8 1016.9 1015.7 0.0
24/05:30am 22.8 19.4 1.8 25 9.9 E 9 11 5 6 1016.5 1015.3 0.0
24/05:00am 23.2 19.8 2.1 25 10.0 E 9 11 5 6 1016.4 1015.2 0.0
24/04:30am 23.8 20.0 2.0 24 10.4 E 11 13 6 7 1015.9 1014.7 0.0
24/04:00am 24.5 20.0 2.0 23 10.8 E 15 17 8 9 1015.6 1014.4 0.0
24/03:30am 25.2 21.2 2.6 23 11.0 E 13 17 7 9 1015.4 1014.2 0.0
24/03:00am 25.7 21.4 3.0 23 11.2 E 15 17 8 9 1015.3 1014.1 0.0
24/02:30am 25.9 21.6 3.2 23 11.2 E 15 17 8 9 1015.3 1014.1 0.0
24/02:00am 26.2 22.1 4.1 24 11.1 E 15 19 8 10 1015.5 1014.3 0.0
24/01:30am 26.4 22.2 3.6 23 11.4 E 15 19 8 10 1015.7 1014.5 0.0
24/01:00am 27.1 23.2 3.6 22 11.8 E 13 19 7 10 1015.8 1014.6 0.0
24/12:30am 27.9 23.3 3.6 21 12.3 E 17 20 9 11 1015.9 1014.7 0.0
24/12:00am 28.3 24.1 3.9 21 12.4 E 15 19 8 10 1016.1 1014.9 0.0
 
Date/Time
EST
Temp
°C
App
Temp
°C
Dew
Point
Rel
Hum
%
Delta-T
°C
Wind Press
QNH
hPa
Press
MSL
hPa
Rain
since 9 am
mm
Dir
 
Spd
km/h
Gust
km/h
Spd
kts
Gust
kts
23/11:30pm 28.6 24.0 3.5 20 12.7 E 17 20 9 11 1016.3 1015.1 0.0
23/11:00pm 28.8 24.6 3.6 20 12.8 E 15 20 8 11 1016.4 1015.2 0.0
23/10:30pm 28.6 25.1 3.5 20 12.7 ESE 11 13 6 7 1016.3 1015.1 0.0
23/10:00pm 29.2 25.3 3.2 19 13.1 ESE 13 17 7 9 1016.0 1014.8 0.0
23/09:30pm 29.2 25.9 2.5 18 13.4 ESE 9 13 5 7 1015.7 1014.5 0.0
23/09:00pm 29.9 26.7 3.0 18 13.6 E 9 11 5 6 1015.3 1014.1 0.0
23/08:30pm 30.6 27.0 2.8 17 14.1 E 11 13 6 7 1015.0 1013.8 0.0
23/08:00pm 31.8 27.4 2.9 16 14.8 E 15 17 8 9 1014.5 1013.3 0.0
23/07:30pm 32.6 27.8 2.6 15 15.4 E 17 20 9 11 1014.4 1013.2 0.0
23/07:00pm 33.4 28.0 2.3 14 15.9 E 20 28 11 15 1014.0 1012.8 0.0
23/06:30pm 34.1 28.4 2.8 14 16.2 ESE 22 30 12 16 1013.7 1012.5 0.0
23/06:00pm 34.5 27.5 2.1 13 16.6 E 28 37 15 20 1013.3 1012.2 0.0
23/05:30pm 34.9 29.7 2.4 13 16.8 E 19 28 10 15 1013.0 1011.9 0.0
23/05:00pm 35.4 30.1 2.8 13 17.0 E 20 39 11 21 1012.9 1011.8 0.0
23/04:30pm 35.8 31.1 3.1 13 17.2 E 17 33 9 18 1013.0 1011.9 0.0
23/04:00pm 35.8 29.0 3.1 13 17.2 E 28 35 15 19 1013.0 1011.9 0.0
23/03:30pm 34.8 28.8 3.4 14 16.5 SE 24 37 13 20 1013.3 1012.2 0.0
23/03:00pm 35.7 29.6 3.0 13 17.1 ESE 24 32 13 17 1013.6 1012.4 0.0
23/02:30pm 34.7 29.5 2.3 13 16.7 ESE 19 35 10 19 1014.0 1012.8 0.0
23/02:00pm 34.9 29.7 3.5 14 16.5 ESE 20 30 11 16 1014.5 1013.3 0.0
23/01:30pm 34.2 28.5 2.9 14 16.2 E 22 33 12 18 1014.9 1013.7 0.0
23/01:00pm 34.3 28.8 4.0 15 16.0 ENE 22 43 12 23 1015.4 1014.2 0.0
23/12:30pm 33.6 28.5 4.3 16 15.5 ENE 20 35 11 19 1016.2 1015.0 0.0
23/12:00pm 32.9 29.6 4.6 17 15.0 ENE 11 22 6 12 1016.8 1015.6 0.0
23/11:30am 32.7 30.3 5.3 18 14.7 NNE 7 19 4 10 1017.4 1016.3 0.0
23/11:00am 31.9 28.4 5.4 19 14.1 N 13 19 7 10 1017.9 1016.8 0.0
23/10:30am 30.1 26.0 6.1 22 12.8 N 17 28 9 15 1018.3 1017.2 0.0
23/10:00am 29.9 26.2 6.5 23 12.6 N 15 26 8 14 1018.6 1017.5 0.0
23/09:30am 28.8 25.2 6.8 25 11.8 N 15 20 8 11 1018.9 1017.8 0.0
23/09:00am 27.3 22.8 6.1 26 11.1 N 19 26 10 14 1018.9 1017.8 0.0
23/08:30am 26.9 22.4 6.9 28 10.6 N 20 26 11 14 1018.9 1017.8 0.0
23/08:00am 26.1 22.9 5.1 26 10.8 N 11 17 6 9 1019.0 1017.9 0.0
23/07:30am 25.3 22.8 3.9 25 10.7 NE 6 9 3 5 1018.8 1017.7 0.0
23/07:00am 24.2 20.9 2.4 24 10.5 ESE 9 13 5 7 1018.3 1017.2 0.0
23/06:30am 22.8 19.7 1.2 24 10.1 SE 7 11 4 6 1017.9 1016.8 0.0
23/06:00am 21.6 18.4 -0.4 23 9.8 ESE 6 6 3 3 1017.4 1016.3 0.0
23/05:30am 23.0 18.9 -0.5 21 10.6 ESE 11 13 6 7 1017.0 1015.8 0.0
23/05:00am 23.6 18.8 0.0 21 10.8 E 15 19 8 10 1016.5 1015.3 0.0
23/04:30am 24.1 18.9 0.4 21 11.0 E 17 20 9 11 1016.1 1014.9 0.0
23/04:00am 24.5 18.8 -0.6 19 11.5 E 19 22 10 12 1015.9 1014.7 0.0
23/03:30am 25.0 19.1 -0.9 18 11.8 ESE 20 26 11 14 1016.0 1014.8 0.0
23/03:00am 25.2 19.3 -0.8 18 11.9 ESE 20 24 11 13 1016.1 1014.9 0.0
23/02:30am 25.9 19.6 -1.0 17 12.3 ESE 22 30 12 16 1016.0 1014.8 0.0
23/02:00am 26.2 19.4 -1.6 16 12.6 ESE 24 30 13 16 1016.2 1015.0 0.0
23/01:30am 26.7 20.2 -2.1 15 13.0 ESE 22 28 12 15 1016.4 1015.2 0.0
23/01:00am 27.0 20.6 -1.8 15 13.1 ESE 22 28 12 15 1016.4 1015.2 0.0
23/12:30am 27.8 21.5 -1.2 15 13.5 ESE 22 28 12 15 1016.5 1015.3 0.0
23/12:00am 28.2 21.8 -1.8 14 13.8 ESE 22 30 12 16 1016.6 1015.4 0.0
 
Date/Time
EST
Temp
°C
App
Temp
°C
Dew
Point
Rel
Hum
%
Delta-T
°C
Wind Press
QNH
hPa
Press
MSL
hPa
Rain
since 9 am
mm
Dir
 
Spd
km/h
Gust
km/h
Spd
kts
Gust
kts
22/11:30pm 28.6 22.6 -1.5 14 14.0 SE 20 24 11 13 1016.6 1015.4 0.0
22/11:00pm 28.8 22.8 -1.3 14 14.0 SE 20 26 11 14 1016.6 1015.4 0.0
22/10:30pm 29.3 23.6 -0.9 14 14.2 SE 19 24 10 13 1016.6 1015.4 0.0
22/10:00pm 29.7 24.4 -0.6 14 14.4 SE 17 22 9 12 1016.5 1015.3 0.0

Other Formats:

Comma delimited format used in spreadsheet applications
http://www.bom.gov.au/fwo/IDQ60801/IDQ60801.94335.axf

JavaScript Object Notation format (JSON) in row-major order
http://www.bom.gov.au/fwo/IDQ60801/IDQ60801.94335.json